KAGS/AGS METAR and TAF weather

Enter ICAO airport designator
Station Type Date Time Source
KAGS METAR 2018/07/21 03:53 UTC NOAA

KAGS 210353Z AUTO 00000KT 10SM CLR 23/22 A2993 RMK AO2 SLP133 T02280222


Station Type Date Time Source
KAGS Decoded METAR 2018/07/21 03:53 UTC NOAA

AUGUSTA BUSH FIELD, GA, United States (KAGS) 33-22N 081-58W 44M
Jul 20, 2018 - 11:53 PM EDT / 2018.07.21 0353 UTC
Wind: Calm:0
Visibility: 10 mile(s):0
Sky conditions: clear
Temperature: 73.0 F (22.8 C)
Dew Point: 72.0 F (22.2 C)
Relative Humidity: 96%
Pressure (altimeter): 29.93 in. Hg (1013 hPa)
ob: KAGS 210353Z AUTO 00000KT 10SM CLR 23/22 A2993 RMK AO2 SLP133 T02280222
cycle: 4

Station Type Date Time Source
KAGS TAF 2018/07/21 03:51 UTC NOAA

TAF
AMD KAGS 210248Z 2103/2124 VRB03KT P6SM SCT050
FM210900 00000KT P6SM SCT015 SCT150
TEMPO 2109/2111 4SM BR
FM211600 27006KT P6SM SCT050


Example: see airport list